createdAt,value
2023-05-22T00:00:02.313Z,12.54
2023-05-22T00:00:33.556Z,12.32
2023-05-22T00:01:05.746Z,12.32
2023-05-22T00:01:36.842Z,12.32
2023-05-22T00:02:09.304Z,12.32
2023-05-22T00:02:37.153Z,12.54
2023-05-22T00:02:57.440Z,12.54
2023-05-22T00:03:28.905Z,12.54
2023-05-22T00:04:00.884Z,12.54
2023-05-22T00:04:33.607Z,12.54
2023-05-22T00:05:05.986Z,12.54
2023-05-22T00:05:36.898Z,12.54
2023-05-22T00:06:08.828Z,12.54
2023-05-22T00:06:37.177Z,12.54
2023-05-22T00:06:56.631Z,12.54
2023-05-22T00:07:29.005Z,12.54
2023-05-22T00:08:01.356Z,12.54
2023-05-22T00:08:33.118Z,12.54
2023-05-22T00:09:04.704Z,12.54
2023-05-22T00:09:36.759Z,12.54
2023-05-22T00:10:09.452Z,12.54
2023-05-22T00:10:37.704Z,12.54
2023-05-22T00:10:57.010Z,12.42
2023-05-22T00:11:28.731Z,12.42
2023-05-22T00:12:00.819Z,12.42
2023-05-22T00:12:33.079Z,12.42
2023-05-22T00:13:04.650Z,12.42
2023-05-22T00:13:36.777Z,12.42
2023-05-22T00:14:08.832Z,12.31
2023-05-22T00:14:37.063Z,12.31
2023-05-22T00:14:56.742Z,12.31
2023-05-22T00:15:29.804Z,12.31
2023-05-22T00:16:00.802Z,12.31
2023-05-22T00:16:32.891Z,12.52
2023-05-22T00:17:04.731Z,12.52
2023-05-22T00:17:36.850Z,12.31
2023-05-22T00:18:08.774Z,12.47
2023-05-22T00:18:37.126Z,12.47
2023-05-22T00:18:57.016Z,12.47
2023-05-22T00:19:28.941Z,12.47
2023-05-22T00:20:01.591Z,12.47
2023-05-22T00:20:33.048Z,12.47
2023-05-22T00:21:04.627Z,12.47
2023-05-22T00:21:36.761Z,12.47
2023-05-22T00:22:08.690Z,12.36
2023-05-22T00:22:37.279Z,12.36
2023-05-22T00:22:56.584Z,12.36
2023-05-22T00:23:28.863Z,12.36
2023-05-22T00:24:00.871Z,12.36
2023-05-22T00:24:32.857Z,12.36
2023-05-22T00:25:06.045Z,12.36
2023-05-22T00:25:37.179Z,12.36
2023-05-22T00:26:08.707Z,12.36
2023-05-22T00:26:37.119Z,12.36
2023-05-22T00:26:57.458Z,12.36
2023-05-22T00:27:28.738Z,12.36
2023-05-22T00:28:00.856Z,12.36
2023-05-22T00:28:33.113Z,12.36
2023-05-22T00:29:04.592Z,12.36
2023-05-22T00:29:36.748Z,12.36
2023-05-22T00:30:09.788Z,12.36
2023-05-22T00:30:37.402Z,12.36
2023-05-22T00:30:57.188Z,12.36
2023-05-22T00:31:28.742Z,12.36
2023-05-22T00:32:00.881Z,12.36
2023-05-22T00:32:33.784Z,12.36
2023-05-22T00:33:04.777Z,12.36
2023-05-22T00:33:36.758Z,12.36
2023-05-22T00:34:08.752Z,12.36
2023-05-22T00:34:37.356Z,12.36
2023-05-22T00:34:56.659Z,12.36
2023-05-22T00:35:29.298Z,12.36
2023-05-22T00:36:00.808Z,12.36
2023-05-22T00:36:33.738Z,12.36
2023-05-22T00:37:04.790Z,12.36
2023-05-22T00:37:38.113Z,12.36
2023-05-22T00:38:08.827Z,12.36
2023-05-22T00:38:36.975Z,12.36
2023-05-22T00:38:56.622Z,12.36
2023-05-22T00:39:28.867Z,12.36
2023-05-22T00:40:01.626Z,12.36
2023-05-22T00:40:32.861Z,12.16
2023-05-22T00:41:04.739Z,12.16
2023-05-22T00:41:36.760Z,12.16
2023-05-22T00:42:09.198Z,12.16
2023-05-22T00:42:37.348Z,12.16
2023-05-22T00:42:56.563Z,12.16
2023-05-22T00:43:29.133Z,12.36
2023-05-22T00:44:00.814Z,12.36
2023-05-22T00:44:33.121Z,12.36
2023-05-22T00:45:06.702Z,12.36
2023-05-22T00:45:36.854Z,12.36
2023-05-22T00:46:08.747Z,12.36
2023-05-22T00:46:37.073Z,12.36
2023-05-22T00:46:56.648Z,12.36
2023-05-22T00:47:28.861Z,12.26
2023-05-22T00:48:00.979Z,12.26
2023-05-22T00:48:33.242Z,12.26
2023-05-22T00:49:04.672Z,12.16
2023-05-22T00:49:37.102Z,12.16
2023-05-22T00:50:09.126Z,12.16
2023-05-22T00:50:37.216Z,12.16
2023-05-22T00:50:56.912Z,12.16
2023-05-22T00:51:28.841Z,12.36
2023-05-22T00:52:00.944Z,12.16
2023-05-22T00:52:33.357Z,12.16
2023-05-22T00:53:04.764Z,12.16
2023-05-22T00:53:36.900Z,12.16
2023-05-22T00:54:08.729Z,12.16
2023-05-22T00:54:37.372Z,12.16
2023-05-22T00:54:56.581Z,12.16
2023-05-22T00:55:29.209Z,12.16
2023-05-22T00:56:00.826Z,12.16
2023-05-22T00:56:33.537Z,12.16
2023-05-22T00:57:04.580Z,12.16
2023-05-22T00:57:37.389Z,12.16
2023-05-22T00:58:08.869Z,12.36
2023-05-22T00:58:37.442Z,12.16
2023-05-22T00:58:56.750Z,12.16
2023-05-22T00:59:28.820Z,12.16
2023-05-22T01:00:02.801Z,12.16
2023-05-22T01:00:33.172Z,12.16
2023-05-22T01:01:05.792Z,12.05
2023-05-22T01:01:52.578Z,12.05
2023-05-22T01:02:24.884Z,12.05
2023-05-22T01:02:56.696Z,12.05
2023-05-22T01:03:28.962Z,12.05
2023-05-22T01:04:01.091Z,12.05
2023-05-22T01:04:32.996Z,12.05
2023-05-22T01:05:06.041Z,12.05
2023-05-22T01:05:37.323Z,12.05
2023-05-22T01:06:08.769Z,12.26
2023-05-22T01:06:37.031Z,12.26
2023-05-22T01:06:56.616Z,12.26
2023-05-22T01:07:28.796Z,12.26
2023-05-22T01:08:00.898Z,12.26
2023-05-22T01:08:33.025Z,12.14
2023-05-22T01:09:04.789Z,12.14
2023-05-22T01:09:36.893Z,12.14
2023-05-22T01:10:09.214Z,12.14
2023-05-22T01:10:37.195Z,12.14
2023-05-22T01:10:57.124Z,12.14
2023-05-22T01:11:29.049Z,12.14
2023-05-22T01:12:00.905Z,12.14
2023-05-22T01:12:32.848Z,12.03
2023-05-22T01:13:04.588Z,12.03
2023-05-22T01:13:37.320Z,12.03
2023-05-22T01:14:08.631Z,12.03
2023-05-22T01:14:37.126Z,12.03
2023-05-22T01:14:56.611Z,12.03
2023-05-22T01:15:28.798Z,12.03
2023-05-22T01:15:59.417Z,12.03
2023-05-22T01:16:31.649Z,12.03
2023-05-22T01:17:03.562Z,12.03
2023-05-22T01:17:35.740Z,12.03
2023-05-22T01:18:07.347Z,11.94
2023-05-22T01:18:36.029Z,11.94
2023-05-22T01:18:55.491Z,12.14
2023-05-22T01:19:27.698Z,12.14
2023-05-22T01:19:59.420Z,12.14
2023-05-22T01:20:32.246Z,12.14
2023-05-22T01:21:03.710Z,12.14
2023-05-22T01:21:35.399Z,11.94
2023-05-22T01:22:07.680Z,11.94
2023-05-22T01:22:35.846Z,11.94
2023-05-22T01:22:56.040Z,11.94
2023-05-22T01:23:27.909Z,11.94
2023-05-22T01:24:00.098Z,12.05
2023-05-22T01:24:31.625Z,12.05
2023-05-22T01:25:03.606Z,12.05
2023-05-22T01:25:35.836Z,12.05
2023-05-22T01:26:07.743Z,12.05
2023-05-22T01:26:35.980Z,12.05
2023-05-22T01:26:55.519Z,12.05
2023-05-22T01:27:27.639Z,12.05
2023-05-22T01:28:00.191Z,12.05
2023-05-22T01:28:31.871Z,12.05
2023-05-22T01:29:03.679Z,12.05
2023-05-22T01:29:35.823Z,12.05
2023-05-22T01:30:08.597Z,12.05
2023-05-22T01:30:36.857Z,12.16
2023-05-22T01:30:56.505Z,12.16
2023-05-22T01:31:27.988Z,12.16
2023-05-22T01:32:00.133Z,12.16
2023-05-22T01:32:31.663Z,12.16
2023-05-22T01:33:04.160Z,12.16
2023-05-22T01:33:36.119Z,12.16
2023-05-22T01:34:08.030Z,12.16
2023-05-22T01:34:36.109Z,12.16
2023-05-22T01:34:55.706Z,12.16
2023-05-22T01:35:28.351Z,12.16
2023-05-22T01:35:59.733Z,12.16
2023-05-22T01:36:31.245Z,12.16
2023-05-22T01:37:03.918Z,12.16
2023-05-22T01:37:36.720Z,12.16
2023-05-22T01:38:08.370Z,12.16
2023-05-22T01:38:36.697Z,12.16
2023-05-22T01:38:56.706Z,12.16
2023-05-22T01:39:33.363Z,12.16
2023-05-22T01:40:03.878Z,12.16
2023-05-22T01:40:34.087Z,12.16
2023-05-22T01:41:05.790Z,12.16
2023-05-22T01:41:38.563Z,12.16
2023-05-22T01:42:09.241Z,12.16
2023-05-22T01:42:37.908Z,12.16
2023-05-22T01:42:56.831Z,12.16
2023-05-22T01:43:28.816Z,12.16
2023-05-22T01:44:00.891Z,12.16
2023-05-22T01:44:32.769Z,12.16
2023-05-22T01:45:06.826Z,12.16
2023-05-22T01:45:37.340Z,12.16
2023-05-22T01:46:08.793Z,12.16
2023-05-22T01:46:37.463Z,12.16
2023-05-22T01:46:56.669Z,12.16
2023-05-22T01:47:29.012Z,12.16
2023-05-22T01:48:00.894Z,11.95
2023-05-22T01:48:33.057Z,12.16
2023-05-22T01:49:04.679Z,12.27
2023-05-22T01:49:37.348Z,12.27
2023-05-22T01:50:09.160Z,12.05
2023-05-22T01:50:37.646Z,12.27
2023-05-22T01:50:57.254Z,12.27
2023-05-22T01:51:28.789Z,12.27
2023-05-22T01:52:01.134Z,12.27
2023-05-22T01:52:32.842Z,12.27
2023-05-22T01:53:04.796Z,12.27
2023-05-22T01:53:36.801Z,12.27
2023-05-22T01:54:08.894Z,12.27
2023-05-22T01:54:37.143Z,12.27
2023-05-22T01:54:56.812Z,12.05
2023-05-22T01:55:29.175Z,12.05
2023-05-22T01:56:00.981Z,12.27
2023-05-22T01:56:32.790Z,12.05
2023-05-22T01:57:04.650Z,12.05
2023-05-22T01:57:36.897Z,12.05
2023-05-22T01:58:08.730Z,12.05
2023-05-22T01:58:37.170Z,12.05
2023-05-22T01:58:56.924Z,12.05
2023-05-22T01:59:28.757Z,12.05
2023-05-22T02:00:02.447Z,12.05
2023-05-22T02:00:33.099Z,12.05
2023-05-22T02:01:05.892Z,12.05
2023-05-22T02:01:36.912Z,12.10
2023-05-22T02:02:08.682Z,12.10
2023-05-22T02:02:37.152Z,12.10
2023-05-22T02:02:56.899Z,12.10
2023-05-22T02:03:28.939Z,12.10
2023-05-22T02:04:00.977Z,12.10
2023-05-22T02:04:32.732Z,12.10
2023-05-22T02:05:06.528Z,12.10
2023-05-22T02:05:36.750Z,12.10
2023-05-22T02:06:08.935Z,12.10
2023-05-22T02:06:37.326Z,12.10
2023-05-22T02:06:56.694Z,12.10
2023-05-22T02:07:28.788Z,12.10
2023-05-22T02:08:00.923Z,12.10
2023-05-22T02:08:32.717Z,12.10
2023-05-22T02:09:04.833Z,12.10
2023-05-22T02:09:36.760Z,12.10
2023-05-22T02:10:09.197Z,12.27
2023-05-22T02:10:37.480Z,12.05
2023-05-22T02:10:57.240Z,12.05
2023-05-22T02:11:28.744Z,12.05
2023-05-22T02:12:00.833Z,12.05
2023-05-22T02:12:32.732Z,12.27
2023-05-22T02:13:04.802Z,12.16
2023-05-22T02:13:36.856Z,12.16
2023-05-22T02:14:08.651Z,12.16
2023-05-22T02:14:37.246Z,12.16
2023-05-22T02:14:56.700Z,12.16
2023-05-22T02:15:29.582Z,12.16
2023-05-22T02:16:01.024Z,12.16
2023-05-22T02:16:32.896Z,12.05
2023-05-22T02:17:05.215Z,12.05
2023-05-22T02:17:37.205Z,12.05
2023-05-22T02:18:09.005Z,12.05
2023-05-22T02:18:37.199Z,12.05
2023-05-22T02:18:56.999Z,12.05
2023-05-22T02:19:28.853Z,12.05
2023-05-22T02:20:01.826Z,12.05
2023-05-22T02:20:32.736Z,12.05
2023-05-22T02:21:04.706Z,12.05
2023-05-22T02:21:36.799Z,12.05
2023-05-22T02:22:08.711Z,12.05
2023-05-22T02:22:37.197Z,11.94
2023-05-22T02:22:57.132Z,11.94
2023-05-22T02:23:28.762Z,11.94
2023-05-22T02:24:00.821Z,12.14
2023-05-22T02:24:32.770Z,12.14
2023-05-22T02:25:06.353Z,11.94
2023-05-22T02:25:36.889Z,12.14
2023-05-22T02:26:08.753Z,12.14
2023-05-22T02:26:37.188Z,12.14
2023-05-22T02:26:57.124Z,11.94
2023-05-22T02:27:28.761Z,12.14
2023-05-22T02:28:01.012Z,12.03
2023-05-22T02:28:32.684Z,12.03
2023-05-22T02:29:04.900Z,12.03
2023-05-22T02:29:36.770Z,12.03
2023-05-22T02:30:09.712Z,12.03
2023-05-22T02:30:37.926Z,12.03
2023-05-22T02:30:57.210Z,12.03
2023-05-22T02:31:28.826Z,12.03
2023-05-22T02:32:01.269Z,11.99
2023-05-22T02:32:32.835Z,11.99
2023-05-22T02:33:04.771Z,11.99
2023-05-22T02:33:37.130Z,11.99
2023-05-22T02:34:08.746Z,11.88
2023-05-22T02:34:37.518Z,11.88
2023-05-22T02:34:56.575Z,11.88
2023-05-22T02:35:29.172Z,12.08
2023-05-22T02:36:01.411Z,12.08
2023-05-22T02:36:32.855Z,12.08
2023-05-22T02:37:04.846Z,11.97
2023-05-22T02:37:36.856Z,11.97
2023-05-22T02:38:08.635Z,11.97
2023-05-22T02:38:37.347Z,11.97
2023-05-22T02:38:56.729Z,11.97
2023-05-22T02:39:28.791Z,11.97
2023-05-22T02:40:01.830Z,11.97
2023-05-22T02:40:32.708Z,11.97
2023-05-22T02:41:05.237Z,11.97
2023-05-22T02:41:36.754Z,11.97
2023-05-22T02:42:08.677Z,11.97
2023-05-22T02:42:37.415Z,11.97
2023-05-22T02:42:56.579Z,11.97
2023-05-22T02:43:28.751Z,11.86
2023-05-22T02:44:01.311Z,11.86
2023-05-22T02:44:32.827Z,11.86
2023-05-22T02:45:07.056Z,11.86
2023-05-22T02:45:37.023Z,11.86
2023-05-22T02:46:09.069Z,11.75
2023-05-22T02:46:37.270Z,11.75
2023-05-22T02:46:56.616Z,11.75
2023-05-22T02:47:28.822Z,11.75
2023-05-22T02:48:01.032Z,11.75
2023-05-22T02:48:32.819Z,11.75
2023-05-22T02:49:04.809Z,11.75
2023-05-22T02:49:37.179Z,11.75
2023-05-22T02:50:09.496Z,11.75
2023-05-22T02:50:37.488Z,11.75
2023-05-22T02:50:57.209Z,11.94
2023-05-22T02:51:28.700Z,11.75
2023-05-22T02:52:00.974Z,11.75
2023-05-22T02:52:32.662Z,11.75
2023-05-22T02:53:04.688Z,11.75
2023-05-22T02:53:37.028Z,11.75
2023-05-22T02:54:08.872Z,11.75
2023-05-22T02:54:37.099Z,11.75
2023-05-22T02:54:56.608Z,11.75
2023-05-22T02:55:29.254Z,11.75
2023-05-22T02:56:00.970Z,11.75
2023-05-22T02:56:32.835Z,11.75
2023-05-22T02:57:04.792Z,11.75
2023-05-22T02:57:36.807Z,11.75
2023-05-22T02:58:08.723Z,11.75
2023-05-22T02:58:37.365Z,11.86
2023-05-22T02:58:56.831Z,11.86
2023-05-22T02:59:28.733Z,11.86
2023-05-22T03:00:02.441Z,11.86
2023-05-22T03:00:32.759Z,11.86
2023-05-22T03:01:05.700Z,11.86
2023-05-22T03:01:36.929Z,11.86
2023-05-22T03:02:08.773Z,11.86
2023-05-22T03:02:37.364Z,11.86
2023-05-22T03:02:56.900Z,11.86
2023-05-22T03:03:28.833Z,11.86
2023-05-22T03:04:01.180Z,11.86
2023-05-22T03:04:32.726Z,11.86
2023-05-22T03:05:06.297Z,11.86
2023-05-22T03:05:36.920Z,11.86
2023-05-22T03:06:08.653Z,11.97
2023-05-22T03:06:37.335Z,11.97
2023-05-22T03:06:56.850Z,11.97
2023-05-22T03:07:28.804Z,11.97
2023-05-22T03:08:00.971Z,11.77
2023-05-22T03:08:32.675Z,11.97
2023-05-22T03:09:21.026Z,11.77
2023-05-22T03:09:42.365Z,11.77
2023-05-22T03:10:09.256Z,11.77
2023-05-22T03:10:38.047Z,11.88
2023-05-22T03:10:57.100Z,11.88
2023-05-22T03:11:28.746Z,11.88
2023-05-22T03:12:00.949Z,11.88
2023-05-22T03:12:32.882Z,11.99
2023-05-22T03:13:04.739Z,11.99
2023-05-22T03:13:36.767Z,11.99
2023-05-22T03:14:08.936Z,11.99
2023-05-22T03:14:37.443Z,11.99
2023-05-22T03:14:57.197Z,11.99
2023-05-22T03:15:29.932Z,11.99
2023-05-22T03:16:01.403Z,11.99
2023-05-22T03:16:33.022Z,11.99
2023-05-22T03:17:04.902Z,11.99
2023-05-22T03:17:37.152Z,11.99
2023-05-22T03:18:09.187Z,11.99
2023-05-22T03:18:37.468Z,11.99
2023-05-22T03:18:56.904Z,11.88
2023-05-22T03:19:29.151Z,12.08
2023-05-22T03:20:01.899Z,12.08
2023-05-22T03:20:32.926Z,12.08
2023-05-22T03:21:04.903Z,12.08
2023-05-22T03:21:36.980Z,11.97
2023-05-22T03:22:08.926Z,11.97
2023-05-22T03:22:37.515Z,11.97
2023-05-22T03:22:56.894Z,11.86
2023-05-22T03:23:29.013Z,11.86
2023-05-22T03:24:01.141Z,11.86
2023-05-22T03:24:32.875Z,11.75
2023-05-22T03:25:06.409Z,11.75
2023-05-22T03:25:37.223Z,11.94
2023-05-22T03:26:08.837Z,11.94
2023-05-22T03:26:37.629Z,11.75
2023-05-22T03:26:57.088Z,11.75
2023-05-22T03:27:28.929Z,11.89
2023-05-22T03:28:01.262Z,11.70
2023-05-22T03:28:32.913Z,11.89
2023-05-22T03:29:05.008Z,11.89
2023-05-22T03:29:37.009Z,11.89
2023-05-22T03:30:09.802Z,11.89
2023-05-22T03:30:37.913Z,11.89
2023-05-22T03:30:57.638Z,11.89
2023-05-22T03:31:29.023Z,11.89
2023-05-22T03:32:01.147Z,11.78
2023-05-22T03:32:33.029Z,11.78
2023-05-22T03:33:04.960Z,11.78
2023-05-22T03:33:37.052Z,11.78
2023-05-22T03:34:09.008Z,11.88
2023-05-22T03:34:37.603Z,11.68
2023-05-22T03:34:56.894Z,11.68
2023-05-22T03:35:29.424Z,11.88
2023-05-22T03:36:01.532Z,11.88
2023-05-22T03:36:33.970Z,11.68
2023-05-22T03:37:05.077Z,11.68
2023-05-22T03:37:37.104Z,11.76
2023-05-22T03:38:09.020Z,11.76
2023-05-22T03:38:37.451Z,11.76
2023-05-22T03:38:57.263Z,11.76
2023-05-22T03:39:29.407Z,11.76
2023-05-22T03:40:02.555Z,11.76
2023-05-22T03:40:32.785Z,11.76
2023-05-22T03:41:04.797Z,11.76
2023-05-22T03:41:36.944Z,11.76
2023-05-22T03:42:08.991Z,11.66
2023-05-22T03:42:37.375Z,11.66
2023-05-22T03:42:58.121Z,11.66
2023-05-22T03:43:29.425Z,11.66
2023-05-22T03:44:01.169Z,11.66
2023-05-22T03:44:32.936Z,11.66
2023-05-22T03:45:06.927Z,11.66
2023-05-22T03:45:37.214Z,11.66
2023-05-22T03:46:08.971Z,11.66
2023-05-22T03:46:37.560Z,11.79
2023-05-22T03:46:56.814Z,11.79
2023-05-22T03:47:29.129Z,11.79
2023-05-22T03:48:01.170Z,11.79
2023-05-22T03:48:33.357Z,11.79
2023-05-22T03:49:04.973Z,11.79
2023-05-22T03:49:37.008Z,11.69
2023-05-22T03:50:09.306Z,11.69
2023-05-22T03:50:37.509Z,11.69
2023-05-22T03:50:57.608Z,11.69
2023-05-22T03:51:28.912Z,11.69
2023-05-22T03:52:01.081Z,11.69
2023-05-22T03:52:33.050Z,11.50
2023-05-22T03:53:04.952Z,11.69
2023-05-22T03:53:37.656Z,11.79
2023-05-22T03:54:09.025Z,11.79
2023-05-22T03:54:37.785Z,11.79
2023-05-22T03:54:57.433Z,11.79
2023-05-22T03:55:29.585Z,11.79
2023-05-22T03:56:01.203Z,11.79
2023-05-22T03:56:33.008Z,11.79
2023-05-22T03:57:05.091Z,11.79
2023-05-22T03:57:21.483Z,11.69
2023-05-22T03:57:42.355Z,11.69
2023-05-22T03:58:08.989Z,11.69
2023-05-22T03:58:37.947Z,11.69
2023-05-22T03:58:57.130Z,11.69
2023-05-22T03:59:29.172Z,11.69
2023-05-22T04:00:02.722Z,11.69
2023-05-22T04:00:33.320Z,11.69
2023-05-22T04:01:05.931Z,11.69
2023-05-22T04:01:21.596Z,11.69
2023-05-22T04:01:42.414Z,11.69
2023-05-22T04:02:08.925Z,11.69
2023-05-22T04:02:37.890Z,11.79
2023-05-22T04:02:56.994Z,11.61
2023-05-22T04:03:29.185Z,11.61
2023-05-22T04:04:01.208Z,11.61
2023-05-22T04:04:32.853Z,11.61
2023-05-22T04:05:06.444Z,11.61
2023-05-22T04:05:21.247Z,11.61
2023-05-22T04:05:43.200Z,11.61
2023-05-22T04:06:08.936Z,11.61
2023-05-22T04:06:37.473Z,11.61
2023-05-22T04:06:56.948Z,11.61
2023-05-22T04:07:29.202Z,11.66
2023-05-22T04:08:01.247Z,11.66
2023-05-22T04:08:32.814Z,11.66
2023-05-22T04:09:04.971Z,11.66
2023-05-22T04:09:21.334Z,11.66
2023-05-22T04:09:42.386Z,11.66
2023-05-22T04:10:09.469Z,11.66
2023-05-22T04:10:37.944Z,11.66
2023-05-22T04:10:57.154Z,11.66
2023-05-22T04:11:29.057Z,11.66
2023-05-22T04:12:01.163Z,11.66
2023-05-22T04:12:32.861Z,11.66
2023-05-22T04:13:04.885Z,11.66
2023-05-22T04:13:21.231Z,11.66
2023-05-22T04:13:42.344Z,11.66
2023-05-22T04:14:08.949Z,11.76
2023-05-22T04:14:37.390Z,11.76
2023-05-22T04:14:56.900Z,11.76
2023-05-22T04:15:30.052Z,11.76
2023-05-22T04:16:01.290Z,11.76
2023-05-22T04:16:32.913Z,11.88
2023-05-22T04:17:05.018Z,11.88
2023-05-22T04:17:21.237Z,11.68
2023-05-22T04:17:42.486Z,11.68
2023-05-22T04:18:08.811Z,11.68
2023-05-22T04:18:37.904Z,11.78
2023-05-22T04:18:57.430Z,11.78
2023-05-22T04:19:29.008Z,11.78
2023-05-22T04:20:01.879Z,11.78
2023-05-22T04:20:33.304Z,11.78
2023-05-22T04:21:04.958Z,11.89
2023-05-22T04:21:21.175Z,11.89
2023-05-22T04:21:42.478Z,11.89
2023-05-22T04:22:08.855Z,11.89
2023-05-22T04:22:37.611Z,11.89
2023-05-22T04:22:56.772Z,11.89
2023-05-22T04:23:29.000Z,11.89
2023-05-22T04:24:01.341Z,11.89
2023-05-22T04:24:32.977Z,11.94
2023-05-22T04:25:06.252Z,11.94
2023-05-22T04:25:21.317Z,11.94
2023-05-22T04:25:42.764Z,11.94
2023-05-22T04:26:08.938Z,11.94
2023-05-22T04:26:37.512Z,11.94
2023-05-22T04:26:56.776Z,11.94
2023-05-22T04:27:29.033Z,11.94
2023-05-22T04:28:01.444Z,11.94
2023-05-22T04:28:32.845Z,11.94
2023-05-22T04:29:04.906Z,11.89
2023-05-22T04:29:21.624Z,11.89
2023-05-22T04:29:42.610Z,11.89
2023-05-22T04:30:09.809Z,11.89
2023-05-22T04:30:38.046Z,11.89
2023-05-22T04:30:57.426Z,11.94
2023-05-22T04:31:29.064Z,11.94
2023-05-22T04:32:01.158Z,11.94
2023-05-22T04:32:32.930Z,11.94
2023-05-22T04:33:04.869Z,11.94
2023-05-22T04:33:21.181Z,11.94
2023-05-22T04:33:42.417Z,11.94
2023-05-22T04:34:09.009Z,11.94
2023-05-22T04:34:37.483Z,11.94
2023-05-22T04:34:56.796Z,11.94
2023-05-22T04:35:29.414Z,11.94
2023-05-22T04:36:01.132Z,11.94
2023-05-22T04:36:33.254Z,11.94
2023-05-22T04:37:04.880Z,12.05
2023-05-22T04:37:21.253Z,12.05
2023-05-22T04:37:42.410Z,12.05
2023-05-22T04:38:08.880Z,12.05
2023-05-22T04:38:37.463Z,12.05
2023-05-22T04:38:57.348Z,12.05
2023-05-22T04:39:28.948Z,12.05
2023-05-22T04:40:01.830Z,12.05
2023-05-22T04:40:32.925Z,12.25
2023-05-22T04:41:04.934Z,12.05
2023-05-22T04:41:22.688Z,12.25
2023-05-22T04:41:42.606Z,12.25
2023-05-22T04:42:08.931Z,12.25
2023-05-22T04:42:37.493Z,12.25
2023-05-22T04:42:57.913Z,12.25
2023-05-22T04:43:29.022Z,12.25
2023-05-22T04:44:01.206Z,12.25
2023-05-22T04:44:33.395Z,12.25
2023-05-22T04:45:07.012Z,12.25
2023-05-22T04:45:21.393Z,12.36
2023-05-22T04:45:43.103Z,12.36
2023-05-22T04:46:08.812Z,12.36
2023-05-22T04:46:37.559Z,12.36
2023-05-22T04:46:56.853Z,12.36
2023-05-22T04:47:29.108Z,12.36
2023-05-22T04:48:01.767Z,12.47
2023-05-22T04:48:33.140Z,12.47
2023-05-22T04:49:05.134Z,12.47
2023-05-22T04:49:21.533Z,12.47
2023-05-22T04:49:42.783Z,12.27
2023-05-22T04:50:09.757Z,12.27
2023-05-22T04:50:38.220Z,12.47
2023-05-22T04:50:57.350Z,12.38
2023-05-22T04:51:29.052Z,12.58
2023-05-22T04:52:01.795Z,12.38
2023-05-22T04:52:33.154Z,12.38
2023-05-22T04:53:05.239Z,12.38
2023-05-22T04:53:21.862Z,12.38
2023-05-22T04:53:42.790Z,12.38
2023-05-22T04:54:09.103Z,12.38
2023-05-22T04:54:37.813Z,12.38
2023-05-22T04:54:58.730Z,12.42
2023-05-22T04:55:29.756Z,12.42
2023-05-22T04:56:01.365Z,12.42
2023-05-22T04:56:36.754Z,12.42
2023-05-22T04:57:05.599Z,12.42
2023-05-22T04:57:21.480Z,12.42
2023-05-22T04:57:42.471Z,12.42
2023-05-22T04:58:09.041Z,12.42
2023-05-22T04:58:37.581Z,12.42
2023-05-22T04:58:57.193Z,12.42
2023-05-22T04:59:29.105Z,12.53
2023-05-22T05:00:03.118Z,12.53
2023-05-22T05:00:33.249Z,12.53
2023-05-22T05:01:06.636Z,12.53
2023-05-22T05:01:21.586Z,12.53
2023-05-22T05:01:42.752Z,12.53
2023-05-22T05:02:09.291Z,12.53
2023-05-22T05:02:37.674Z,12.53
2023-05-22T05:02:57.162Z,12.34
2023-05-22T05:03:29.262Z,12.53
2023-05-22T05:04:01.677Z,12.53
2023-05-22T05:04:33.104Z,12.53
2023-05-22T05:05:06.525Z,12.53
2023-05-22T05:05:21.541Z,12.65
2023-05-22T05:05:43.002Z,12.65
2023-05-22T05:06:09.622Z,12.65
2023-05-22T05:06:37.697Z,12.65
2023-05-22T05:06:57.029Z,12.46
2023-05-22T05:07:29.340Z,12.46
2023-05-22T05:08:01.421Z,12.65
2023-05-22T05:08:33.055Z,12.46
2023-05-22T05:09:05.168Z,12.46
2023-05-22T05:09:21.678Z,12.46
2023-05-22T05:09:42.736Z,12.46
2023-05-22T05:10:10.049Z,12.46
2023-05-22T05:10:38.219Z,12.46
2023-05-22T05:10:57.705Z,12.46
2023-05-22T05:11:29.306Z,12.46
2023-05-22T05:12:01.376Z,12.46
2023-05-22T05:12:33.271Z,12.65
2023-05-22T05:13:04.927Z,12.65
2023-05-22T05:13:21.475Z,12.46
2023-05-22T05:13:42.587Z,12.46
2023-05-22T05:14:09.136Z,12.46
2023-05-22T05:14:38.045Z,12.46
2023-05-22T05:14:57.035Z,12.46
2023-05-22T05:15:31.851Z,12.46
2023-05-22T05:16:01.521Z,12.46
2023-05-22T05:16:33.307Z,12.46
2023-05-22T05:17:05.092Z,12.46
2023-05-22T05:17:21.696Z,12.46
2023-05-22T05:17:42.799Z,12.46
2023-05-22T05:18:08.976Z,12.46
2023-05-22T05:18:37.573Z,12.46
2023-05-22T05:18:57.078Z,12.46
2023-05-22T05:19:29.181Z,12.46
2023-05-22T05:20:02.991Z,12.46
2023-05-22T05:20:33.124Z,12.56
2023-05-22T05:21:04.949Z,12.56
2023-05-22T05:21:21.912Z,12.56
2023-05-22T05:21:42.594Z,12.56
2023-05-22T05:22:09.073Z,12.56
2023-05-22T05:22:37.689Z,12.56
2023-05-22T05:22:57.044Z,12.56
2023-05-22T05:23:29.239Z,12.56
2023-05-22T05:24:01.447Z,12.56
2023-05-22T05:24:33.175Z,12.56
2023-05-22T05:25:06.492Z,12.56
2023-05-22T05:25:21.485Z,12.67
2023-05-22T05:25:42.991Z,12.67
2023-05-22T05:26:09.075Z,12.67
2023-05-22T05:26:37.651Z,12.67
2023-05-22T05:26:57.076Z,12.67
2023-05-22T05:27:29.227Z,12.67
2023-05-22T05:28:01.331Z,12.67
2023-05-22T05:28:33.616Z,12.67
2023-05-22T05:29:05.040Z,12.67
2023-05-22T05:29:21.777Z,12.67
2023-05-22T05:29:42.662Z,12.67
2023-05-22T05:30:09.929Z,12.67
2023-05-22T05:30:38.005Z,12.67
2023-05-22T05:30:57.609Z,12.67
2023-05-22T05:31:29.270Z,12.67
2023-05-22T05:32:01.572Z,12.67
2023-05-22T05:32:33.474Z,12.67
2023-05-22T05:33:05.268Z,12.67
2023-05-22T05:33:37.320Z,12.67
2023-05-22T05:34:08.950Z,12.67
2023-05-22T05:34:37.653Z,12.67
2023-05-22T05:34:57.016Z,12.67
2023-05-22T05:35:29.761Z,12.67
2023-05-22T05:36:01.318Z,12.67
2023-05-22T05:36:33.904Z,12.67
2023-05-22T05:37:05.124Z,12.72
2023-05-22T05:37:21.398Z,12.67
2023-05-22T05:37:42.534Z,12.67
2023-05-22T05:38:09.189Z,12.72
2023-05-22T05:38:37.688Z,12.72
2023-05-22T05:38:57.080Z,12.72
2023-05-22T05:39:29.111Z,12.72
2023-05-22T05:40:02.562Z,12.72
2023-05-22T05:40:33.057Z,12.72
2023-05-22T05:41:06.109Z,12.72
2023-05-22T05:41:21.473Z,12.72
2023-05-22T05:41:42.892Z,12.72
2023-05-22T05:42:09.029Z,12.72
2023-05-22T05:42:37.750Z,12.72
2023-05-22T05:42:57.353Z,12.83
2023-05-22T05:43:29.254Z,12.83
2023-05-22T05:44:01.402Z,12.83
2023-05-22T05:44:33.206Z,12.62
2023-05-22T05:45:07.269Z,12.74
2023-05-22T05:45:21.438Z,12.74
2023-05-22T05:45:43.375Z,12.74
2023-05-22T05:46:09.192Z,12.85
2023-05-22T05:46:37.961Z,12.85
2023-05-22T05:46:57.022Z,12.85
2023-05-22T05:47:29.763Z,12.85
2023-05-22T05:48:01.489Z,12.95
2023-05-22T05:48:33.013Z,12.95
2023-05-22T05:49:05.047Z,12.75
2023-05-22T05:49:37.177Z,12.80
2023-05-22T05:50:09.539Z,13.00
2023-05-22T05:50:37.838Z,13.00
2023-05-22T05:50:57.503Z,12.80
2023-05-22T05:51:29.323Z,12.80
2023-05-22T05:52:01.401Z,13.11
2023-05-22T05:52:33.058Z,12.90
2023-05-22T05:53:05.062Z,12.90
2023-05-22T05:53:37.156Z,12.90
2023-05-22T05:54:09.169Z,13.02
2023-05-22T05:54:37.825Z,13.02
2023-05-22T05:54:57.044Z,13.02
2023-05-22T05:55:29.784Z,13.02
2023-05-22T05:56:01.331Z,13.02
2023-05-22T05:56:33.799Z,13.13
2023-05-22T05:57:05.043Z,13.13
2023-05-22T05:57:37.207Z,13.13
2023-05-22T05:58:09.075Z,13.13
2023-05-22T05:58:37.676Z,12.91
2023-05-22T05:58:57.135Z,13.01
2023-05-22T05:59:29.134Z,13.23
2023-05-22T06:00:03.121Z,13.01
2023-05-22T06:00:33.150Z,13.23
2023-05-22T06:01:05.982Z,13.23
2023-05-22T06:01:37.914Z,13.23
2023-05-22T06:02:08.956Z,13.23
2023-05-22T06:02:38.118Z,13.44
2023-05-22T06:02:57.205Z,13.23
2023-05-22T06:03:29.264Z,13.23
2023-05-22T06:04:01.552Z,13.23
2023-05-22T06:04:32.968Z,13.23
2023-05-22T06:05:06.615Z,13.01
2023-05-22T06:05:37.537Z,13.23
2023-05-22T06:06:08.857Z,13.23
2023-05-22T06:06:38.117Z,13.23
2023-05-22T06:06:57.132Z,13.23
2023-05-22T06:07:29.329Z,13.23
2023-05-22T06:08:01.415Z,13.23
2023-05-22T06:08:33.173Z,13.06
2023-05-22T06:09:05.052Z,13.06
2023-05-22T06:09:37.050Z,13.06
2023-05-22T06:10:09.533Z,13.06
2023-05-22T06:10:37.867Z,13.28
2023-05-22T06:10:57.761Z,13.39
2023-05-22T06:11:29.072Z,13.39
2023-05-22T06:12:01.844Z,13.17
2023-05-22T06:12:32.974Z,13.50
2023-05-22T06:13:05.063Z,13.28